Reigate, United Kingdom
Current Conditions -  °F | °C
As of 5:20 PM on Saturday 25 Oct 2014 (Local Time) from EGKK Reporting Station
Scattered Clouds Scattered Clouds  
Wind Chill: 55°   Ceiling: Unl
Heat Index: 55°   Visibility: 6mi
Dew Point: 46°   Wind: 6mph
Humidity: 72%   Direction: 210°SSW
Pressure: 30.09"   Gusts: NA
Location:  51.24°N, 0.21°W
Report Text: EGKK 251620Z 21005KT 9999 SCT040 13/08 Q1019
Loading
Personal Weather Stations






























Interactive Weather Map
Tropical Storm Tracking
New forecast layout! Learn more

10-Day Weather Forecast

Advertisements
Track Severe Weather on mobile